sensor_id;sensor_type;location;lat;lon;timestamp;pressure;altitude;pressure_sealevel;temperature;humidity
82927;BME280;72788;40.218;44.486;2023-10-13T00:01:59;89486.63;;;14.84;43.96
82927;BME280;72788;40.218;44.486;2023-10-13T00:04:28;89487.72;;;14.86;44.58
82927;BME280;72788;40.218;44.486;2023-10-13T00:06:55;89486.63;;;14.84;44.07
82927;BME280;72788;40.218;44.486;2023-10-13T00:09:24;89484.84;;;14.77;44.13
82927;BME280;72788;40.218;44.486;2023-10-13T00:11:54;89484.41;;;14.79;44.78
82927;BME280;72788;40.218;44.486;2023-10-13T00:14:22;89484.41;;;14.79;44.27
82927;BME280;72788;40.218;44.486;2023-10-13T00:16:47;89480.59;;;14.80;44.28
82927;BME280;72788;40.218;44.486;2023-10-13T00:19:33;89481.38;;;14.80;44.63
82927;BME280;72788;40.218;44.486;2023-10-13T00:22:15;89477.94;;;14.80;44.65
82927;BME280;72788;40.218;44.486;2023-10-13T00:24:43;89486.63;;;14.84;44.94
82927;BME280;72788;40.218;44.486;2023-10-13T00:27:18;89484.34;;;14.86;44.29
82927;BME280;72788;40.218;44.486;2023-10-13T00:29:53;89479.41;;;14.84;44.81
82927;BME280;72788;40.218;44.486;2023-10-13T00:32:39;89479.91;;;14.76;44.31
82927;BME280;72788;40.218;44.486;2023-10-13T00:35:09;89473.78;;;14.79;44.54
82927;BME280;72788;40.218;44.486;2023-10-13T00:37:37;89483.56;;;14.85;44.43
82927;BME280;72788;40.218;44.486;2023-10-13T00:40:12;89482.00;;;14.88;44.51
82927;BME280;72788;40.218;44.486;2023-10-13T00:42:59;89481.69;;;14.82;44.55
82927;BME280;72788;40.218;44.486;2023-10-13T00:45:57;89477.88;;;14.83;45.41
82927;BME280;72788;40.218;44.486;2023-10-13T00:48:25;89483.16;;;14.87;44.61
82927;BME280;72788;40.218;44.486;2023-10-13T00:50:58;89477.88;;;14.83;44.63
82927;BME280;72788;40.218;44.486;2023-10-13T00:53:29;89487.84;;;14.79;44.88
82927;BME280;72788;40.218;44.486;2023-10-13T00:55:59;89484.03;;;14.80;45.95
82927;BME280;72788;40.218;44.486;2023-10-13T00:58:36;89481.31;;;14.84;45.10
82927;BME280;72788;40.218;44.486;2023-10-13T01:01:05;89481.19;;;14.91;44.52
82927;BME280;72788;40.218;44.486;2023-10-13T01:03:50;89481.13;;;14.94;44.81
82927;BME280;72788;40.218;44.486;2023-10-13T01:06:21;89481.84;;;14.98;44.70
82927;BME280;72788;40.218;44.486;2023-10-13T01:09:15;89476.88;;;15.00;45.13
82927;BME280;72788;40.218;44.486;2023-10-13T01:11:49;89478.41;;;14.98;44.83
82927;BME280;72788;40.218;44.486;2023-10-13T01:14:18;89476.94;;;14.97;44.45
82927;BME280;72788;40.218;44.486;2023-10-13T01:16:46;89475.44;;;14.96;44.47
82927;BME280;72788;40.218;44.486;2023-10-13T01:19:13;89480.00;;;14.95;44.41
82927;BME280;72788;40.218;44.486;2023-10-13T01:21:42;89477.00;;;14.93;44.54
82927;BME280;72788;40.218;44.486;2023-10-13T01:24:10;89485.38;;;14.92;44.54
82927;BME280;72788;40.218;44.486;2023-10-13T01:26:37;89483.63;;;14.82;44.58
82927;BME280;72788;40.218;44.486;2023-10-13T01:29:06;89479.56;;;14.74;44.56
82927;BME280;72788;40.218;44.486;2023-10-13T01:31:41;89476.53;;;14.72;44.77
82927;BME280;72788;40.218;44.486;2023-10-13T01:34:17;89479.56;;;14.74;45.67
82927;BME280;72788;40.218;44.486;2023-10-13T01:36:51;89481.88;;;14.72;45.37
82927;BME280;72788;40.218;44.486;2023-10-13T01:39:18;89485.66;;;14.71;45.14
82927;BME280;72788;40.218;44.486;2023-10-13T01:41:44;89491.00;;;14.71;45.00
82927;BME280;72788;40.218;44.486;2023-10-13T01:44:10;89475.78;;;14.71;45.03
82927;BME280;72788;40.218;44.486;2023-10-13T01:46:40;89480.72;;;14.73;45.10
82927;BME280;72788;40.218;44.486;2023-10-13T01:49:08;89484.84;;;14.77;45.27
82927;BME280;72788;40.218;44.486;2023-10-13T01:51:34;89485.13;;;14.83;44.95
82927;BME280;72788;40.218;44.486;2023-10-13T01:53:59;89484.66;;;14.88;45.13
82927;BME280;72788;40.218;44.486;2023-10-13T01:56:28;89481.63;;;14.89;44.46
82927;BME280;72788;40.218;44.486;2023-10-13T01:58:56;89481.63;;;14.89;44.64
82927;BME280;72788;40.218;44.486;2023-10-13T02:01:21;89476.63;;;14.91;44.47
82927;BME280;72788;40.218;44.486;2023-10-13T02:03:55;89483.47;;;14.92;44.86
82927;BME280;72788;40.218;44.486;2023-10-13T02:06:34;89473.16;;;14.94;45.12
82927;BME280;72788;40.218;44.486;2023-10-13T02:09:08;89480.38;;;14.94;45.44
82927;BME280;72788;40.218;44.486;2023-10-13T02:11:51;89471.69;;;14.90;44.91
82927;BME280;72788;40.218;44.486;2023-10-13T02:14:22;89469.47;;;14.88;45.06
82927;BME280;72788;40.218;44.486;2023-10-13T02:16:48;89469.16;;;14.83;44.95
82927;BME280;72788;40.218;44.486;2023-10-13T02:19:21;89468.38;;;14.86;45.00
82927;BME280;72788;40.218;44.486;2023-10-13T02:21:47;89460.38;;;14.86;45.12
82927;BME280;72788;40.218;44.486;2023-10-13T02:24:24;89469.53;;;14.85;45.04
82927;BME280;72788;40.218;44.486;2023-10-13T02:26:56;89463.84;;;14.83;45.48
82927;BME280;72788;40.218;44.486;2023-10-13T02:29:28;89470.66;;;14.84;45.13
82927;BME280;72788;40.218;44.486;2023-10-13T02:31:53;89464.69;;;14.76;45.06
82927;BME280;72788;40.218;44.486;2023-10-13T02:34:21;89471.13;;;14.79;45.45
82927;BME280;72788;40.218;44.486;2023-10-13T02:36:48;89466.28;;;14.74;45.07
82927;BME280;72788;40.218;44.486;2023-10-13T02:39:18;89467.09;;;14.67;45.98
82927;BME280;72788;40.218;44.486;2023-10-13T02:41:53;89473.63;;;14.62;45.67
82927;BME280;72788;40.218;44.486;2023-10-13T02:44:20;89461.91;;;14.60;45.72
82927;BME280;72788;40.218;44.486;2023-10-13T02:46:56;89472.63;;;14.53;46.49
82927;BME280;72788;40.218;44.486;2023-10-13T02:49:23;89473.03;;;14.51;45.77
82927;BME280;72788;40.218;44.486;2023-10-13T02:51:51;89479.09;;;14.52;46.04
82927;BME280;72788;40.218;44.486;2023-10-13T02:54:18;89481.06;;;14.48;46.02
82927;BME280;72788;40.218;44.486;2023-10-13T02:56:45;89475.78;;;14.44;46.05
82927;BME280;72788;40.218;44.486;2023-10-13T02:59:24;89475.50;;;14.39;45.78
82927;BME280;72788;40.218;44.486;2023-10-13T03:02:08;89477.44;;;14.31;45.86
82927;BME280;72788;40.218;44.486;2023-10-13T03:04:55;89480.56;;;14.26;46.06
82927;BME280;72788;40.218;44.486;2023-10-13T03:07:35;89487.03;;;14.25;45.80
82927;BME280;72788;40.218;44.486;2023-10-13T03:10:02;89474.84;;;14.28;45.39
82927;BME280;72788;40.218;44.486;2023-10-13T03:12:36;89474.44;;;14.29;45.65
82927;BME280;72788;40.218;44.486;2023-10-13T03:15:03;89474.06;;;14.31;45.50
82927;BME280;72788;40.218;44.486;2023-10-13T03:17:46;89475.53;;;14.32;45.55
82927;BME280;72788;40.218;44.486;2023-10-13T03:20:18;89466.47;;;14.29;45.82
82927;BME280;72788;40.218;44.486;2023-10-13T03:23:04;89471.47;;;14.23;45.02
82927;BME280;72788;40.218;44.486;2023-10-13T03:25:34;89476.94;;;14.13;45.35
82927;BME280;72788;40.218;44.486;2023-10-13T03:28:08;89473.88;;;14.14;45.46
82927;BME280;72788;40.218;44.486;2023-10-13T03:30:39;89481.75;;;14.21;45.17
82927;BME280;72788;40.218;44.486;2023-10-13T03:33:08;89472.94;;;14.28;44.88
82927;BME280;72788;40.218;44.486;2023-10-13T03:35:38;89478.19;;;14.32;44.90
82927;BME280;72788;40.218;44.486;2023-10-13T03:38:05;89480.91;;;14.28;44.64
82927;BME280;72788;40.218;44.486;2023-10-13T03:40:43;89484.84;;;14.16;44.91
82927;BME280;72788;40.218;44.486;2023-10-13T03:43:14;89475.78;;;14.14;44.74
82927;BME280;72788;40.218;44.486;2023-10-13T03:45:45;89489.53;;;14.05;44.49
82927;BME280;72788;40.218;44.486;2023-10-13T03:48:18;89485.00;;;14.06;45.04
82927;BME280;72788;40.218;44.486;2023-10-13T03:50:51;89486.88;;;14.05;44.88
82927;BME280;72788;40.218;44.486;2023-10-13T03:53:32;89489.13;;;14.10;44.91
82927;BME280;72788;40.218;44.486;2023-10-13T03:56:02;89495.47;;;14.16;45.16
82927;BME280;72788;40.218;44.486;2023-10-13T03:58:38;89492.72;;;14.23;45.15
82927;BME280;72788;40.218;44.486;2023-10-13T04:01:06;89483.56;;;14.28;44.47
82927;BME280;72788;40.218;44.486;2023-10-13T04:03:35;89500.19;;;14.36;44.51
82927;BME280;72788;40.218;44.486;2023-10-13T04:06:04;89497.16;;;14.37;44.79
82927;BME280;72788;40.218;44.486;2023-10-13T04:08:33;89492.22;;;14.36;44.56
82927;BME280;72788;40.218;44.486;2023-10-13T04:11:09;89488.75;;;14.42;44.58
82927;BME280;72788;40.218;44.486;2023-10-13T04:13:53;89493.59;;;14.47;44.58
82927;BME280;72788;40.218;44.486;2023-10-13T04:16:37;89499.63;;;14.51;44.54
82927;BME280;72788;40.218;44.486;2023-10-13T04:19:05;89499.16;;;14.56;44.24
82927;BME280;72788;40.218;44.486;2023-10-13T04:21:34;89500.97;;;14.63;44.24
82927;BME280;72788;40.218;44.486;2023-10-13T04:24:12;89504.69;;;14.69;44.41
82927;BME280;72788;40.218;44.486;2023-10-13T04:26:44;89505.34;;;14.77;44.29
82927;BME280;72788;40.218;44.486;2023-10-13T04:29:28;89498.41;;;14.83;43.93
82927;BME280;72788;40.218;44.486;2023-10-13T04:32:12;89506.66;;;14.92;43.75
82927;BME280;72788;40.218;44.486;2023-10-13T04:34:41;89506.97;;;14.97;43.98
82927;BME280;72788;40.218;44.486;2023-10-13T04:37:11;89511.41;;;15.04;44.05
82927;BME280;72788;40.218;44.486;2023-10-13T04:39:58;89500.31;;;15.09;43.96
82927;BME280;72788;40.218;44.486;2023-10-13T04:42:37;89505.88;;;15.18;44.14
82927;BME280;72788;40.218;44.486;2023-10-13T04:45:17;89504.59;;;15.26;43.53
82927;BME280;72788;40.218;44.486;2023-10-13T04:47:59;89500.66;;;15.34;43.49
82927;BME280;72788;40.218;44.486;2023-10-13T04:50:41;89502.50;;;15.37;43.66
82927;BME280;72788;40.218;44.486;2023-10-13T04:53:19;89507.72;;;15.44;43.10
82927;BME280;72788;40.218;44.486;2023-10-13T04:56:20;89502.72;;;15.50;43.15
82927;BME280;72788;40.218;44.486;2023-10-13T04:59:04;89502.94;;;15.59;43.44
82927;BME280;72788;40.218;44.486;2023-10-13T05:02:01;89503.91;;;15.69;42.98
82927;BME280;72788;40.218;44.486;2023-10-13T05:04:45;89505.34;;;15.73;42.94
82927;BME280;72788;40.218;44.486;2023-10-13T05:07:37;89502.22;;;15.78;42.93
82927;BME280;72788;40.218;44.486;2023-10-13T05:10:41;89503.59;;;15.86;42.68
82927;BME280;72788;40.218;44.486;2023-10-13T05:13:25;89511.81;;;15.95;42.87
82927;BME280;72788;40.218;44.486;2023-10-13T05:16:09;89507.44;;;16.05;42.91
82927;BME280;72788;40.218;44.486;2023-10-13T05:18:53;89504.56;;;16.16;42.69
82927;BME280;72788;40.218;44.486;2023-10-13T05:21:37;89498.00;;;16.20;42.57
82927;BME280;72788;40.218;44.486;2023-10-13T05:24:21;89497.59;;;16.22;42.49
82927;BME280;72788;40.218;44.486;2023-10-13T05:27:05;89495.69;;;16.22;42.67
82927;BME280;72788;40.218;44.486;2023-10-13T05:29:49;89495.94;;;16.28;42.46
82927;BME280;72788;40.218;44.486;2023-10-13T05:32:33;89501.19;;;16.31;42.24
82927;BME280;72788;40.218;44.486;2023-10-13T05:35:19;89500.31;;;16.38;42.51
82927;BME280;72788;40.218;44.486;2023-10-13T05:38:04;89500.94;;;16.45;42.56
82927;BME280;72788;40.218;44.486;2023-10-13T05:40:59;89500.38;;;16.54;41.89
82927;BME280;72788;40.218;44.486;2023-10-13T05:43:44;89507.81;;;16.63;42.05
82927;BME280;72788;40.218;44.486;2023-10-13T05:46:28;89500.03;;;16.72;42.07
82927;BME280;72788;40.218;44.486;2023-10-13T05:49:07;89503.72;;;16.78;41.64
82927;BME280;72788;40.218;44.486;2023-10-13T05:51:44;89497.88;;;16.83;41.55
82927;BME280;72788;40.218;44.486;2023-10-13T05:54:23;89489.38;;;16.88;41.48
82927;BME280;72788;40.218;44.486;2023-10-13T05:57:07;89491.97;;;16.91;41.56
82927;BME280;72788;40.218;44.486;2023-10-13T05:59:51;89492.63;;;16.95;41.55
82927;BME280;72788;40.218;44.486;2023-10-13T06:02:35;89492.16;;;17.00;41.85
82927;BME280;72788;40.218;44.486;2023-10-13T06:05:19;89481.31;;;17.08;41.78
82927;BME280;72788;40.218;44.486;2023-10-13T06:08:03;89484.16;;;17.17;41.73
82927;BME280;72788;40.218;44.486;2023-10-13T06:10:48;89484.06;;;17.20;41.40
82927;BME280;72788;40.218;44.486;2023-10-13T06:13:33;89480.88;;;17.25;41.39
82927;BME280;72788;40.218;44.486;2023-10-13T06:16:17;89487.91;;;17.19;41.25
82927;BME280;72788;40.218;44.486;2023-10-13T06:19:02;89487.56;;;17.17;41.52
82927;BME280;72788;40.218;44.486;2023-10-13T06:21:46;89479.06;;;17.22;41.16
82927;BME280;72788;40.218;44.486;2023-10-13T06:24:31;89475.53;;;17.25;41.19
82927;BME280;72788;40.218;44.486;2023-10-13T06:27:16;89477.47;;;17.25;41.49
82927;BME280;72788;40.218;44.486;2023-10-13T06:30:01;89473.81;;;17.19;41.35
82927;BME280;72788;40.218;44.486;2023-10-13T06:32:27;89467.03;;;17.14;41.53
82927;BME280;72788;40.218;44.486;2023-10-13T06:34:53;89467.47;;;17.13;41.63
82927;BME280;72788;40.218;44.486;2023-10-13T06:37:24;89460.28;;;17.10;41.29
82927;BME280;72788;40.218;44.486;2023-10-13T06:39:59;89466.88;;;17.05;41.42
82927;BME280;72788;40.218;44.486;2023-10-13T06:42:32;89468.22;;;16.97;41.33
82927;BME280;72788;40.218;44.486;2023-10-13T06:45:00;89465.63;;;16.93;41.91
82927;BME280;72788;40.218;44.486;2023-10-13T06:47:28;89458.50;;;16.87;41.46
82927;BME280;72788;40.218;44.486;2023-10-13T06:49:54;89458.13;;;16.88;41.73
82927;BME280;72788;40.218;44.486;2023-10-13T06:52:22;89460.69;;;16.92;42.05
82927;BME280;72788;40.218;44.486;2023-10-13T06:54:52;89465.78;;;16.86;42.19
82927;BME280;72788;40.218;44.486;2023-10-13T06:57:19;89454.84;;;16.81;42.49
82927;BME280;72788;40.218;44.486;2023-10-13T06:59:48;89462.28;;;16.73;42.08
82927;BME280;72788;40.218;44.486;2023-10-13T07:02:13;89453.91;;;16.71;42.61
82927;BME280;72788;40.218;44.486;2023-10-13T07:04:48;89451.69;;;16.70;42.39
82927;BME280;72788;40.218;44.486;2023-10-13T07:07:22;89448.66;;;16.68;42.72
82927;BME280;72788;40.218;44.486;2023-10-13T07:09:49;89448.66;;;16.68;42.68
82927;BME280;72788;40.218;44.486;2023-10-13T07:12:21;89453.59;;;16.69;42.42
82927;BME280;72788;40.218;44.486;2023-10-13T07:14:58;89447.41;;;16.72;42.57
82927;BME280;72788;40.218;44.486;2023-10-13T07:17:42;89438.16;;;16.77;42.36
82927;BME280;72788;40.218;44.486;2023-10-13T07:20:10;89438.56;;;16.75;42.30
82927;BME280;72788;40.218;44.486;2023-10-13T07:22:43;89435.75;;;16.82;42.38
82927;BME280;72788;40.218;44.486;2023-10-13T07:25:27;89435.16;;;16.91;42.17
82927;BME280;72788;40.218;44.486;2023-10-13T07:28:04;89435.00;;;16.98;42.14
82927;BME280;72788;40.218;44.486;2023-10-13T07:30:31;89432.09;;;16.92;41.52
82927;BME280;72788;40.218;44.486;2023-10-13T07:33:05;89431.00;;;16.90;41.75
82927;BME280;72788;40.218;44.486;2023-10-13T07:35:31;89424.56;;;16.87;42.28
82927;BME280;72788;40.218;44.486;2023-10-13T07:38:01;89420.66;;;16.92;42.24
82927;BME280;72788;40.218;44.486;2023-10-13T07:40:28;89414.22;;;17.06;41.90
82927;BME280;72788;40.218;44.486;2023-10-13T07:42:54;89414.16;;;17.09;42.14
82927;BME280;72788;40.218;44.486;2023-10-13T07:45:27;89409.56;;;17.10;41.72
82927;BME280;72788;40.218;44.486;2023-10-13T07:48:02;89410.31;;;17.10;41.95
82927;BME280;72788;40.218;44.486;2023-10-13T07:50:34;89405.31;;;17.12;42.02
82927;BME280;72788;40.218;44.486;2023-10-13T07:52:59;89408.56;;;17.20;42.13
82927;BME280;72788;40.218;44.486;2023-10-13T07:55:45;89400.72;;;17.29;41.51
82927;BME280;72788;40.218;44.486;2023-10-13T07:58:12;89396.34;;;17.35;41.55
82927;BME280;72788;40.218;44.486;2023-10-13T08:00:39;89390.06;;;17.41;41.50
82927;BME280;72788;40.218;44.486;2023-10-13T08:03:12;89378.63;;;17.41;41.42
82927;BME280;72788;40.218;44.486;2023-10-13T08:05:43;89381.22;;;17.44;41.65
82927;BME280;72788;40.218;44.486;2023-10-13T08:08:31;89381.28;;;17.57;41.23
82927;BME280;72788;40.218;44.486;2023-10-13T08:11:10;89379.63;;;17.63;41.00
82927;BME280;72788;40.218;44.486;2023-10-13T08:13:58;89376.28;;;17.59;40.96
82927;BME280;72788;40.218;44.486;2023-10-13T08:16:29;89371.78;;;17.56;40.42
82927;BME280;72788;40.218;44.486;2023-10-13T08:19:14;89365.13;;;17.48;41.06
82927;BME280;72788;40.218;44.486;2023-10-13T08:21:41;89358.16;;;17.50;40.77
82927;BME280;72788;40.218;44.486;2023-10-13T08:24:17;89356.16;;;17.55;41.24
82927;BME280;72788;40.218;44.486;2023-10-13T08:26:52;89351.97;;;17.54;40.90
82927;BME280;72788;40.218;44.486;2023-10-13T08:29:36;89351.38;;;17.62;40.88
82927;BME280;72788;40.218;44.486;2023-10-13T08:34:59;89343.22;;;17.82;40.72
82927;BME280;72788;40.218;44.486;2023-10-13T08:37:32;89345.59;;;17.92;40.52
82927;BME280;72788;40.218;44.486;2023-10-13T08:40:27;89326.56;;;17.90;40.11
82927;BME280;72788;40.218;44.486;2023-10-13T08:43:03;89323.13;;;17.90;40.17
82927;BME280;72788;40.218;44.486;2023-10-13T08:45:31;89321.75;;;17.98;40.27
82927;BME280;72788;40.218;44.486;2023-10-13T08:48:00;89319.22;;;18.07;40.43
82927;BME280;72788;40.218;44.486;2023-10-13T08:50:54;89319.19;;;18.20;40.15
82927;BME280;72788;40.218;44.486;2023-10-13T08:53:31;89299.53;;;18.26;39.71
82927;BME280;72788;40.218;44.486;2023-10-13T08:56:09;89305.63;;;18.27;39.37
82927;BME280;72788;40.218;44.486;2023-10-13T08:58:45;89299.31;;;18.33;39.72
82927;BME280;72788;40.218;44.486;2023-10-13T09:01:20;89291.94;;;18.37;39.60
82927;BME280;72788;40.218;44.486;2023-10-13T09:07:05;89281.00;;;18.44;39.21
82927;BME280;72788;40.218;44.486;2023-10-13T09:09:32;89280.88;;;18.48;38.90
82927;BME280;72788;40.218;44.486;2023-10-13T09:12:14;89275.44;;;18.52;38.48
82927;BME280;72788;40.218;44.486;2023-10-13T09:14:41;89274.16;;;18.56;39.31
82927;BME280;72788;40.218;44.486;2023-10-13T09:17:11;89277.06;;;18.62;39.61
82927;BME280;72788;40.218;44.486;2023-10-13T09:22:26;89268.13;;;18.77;38.11
82927;BME280;72788;40.218;44.486;2023-10-13T09:25:04;89255.38;;;18.81;38.91
82927;BME280;72788;40.218;44.486;2023-10-13T09:27:39;89256.75;;;18.86;39.23
82927;BME280;72788;40.218;44.486;2023-10-13T09:30:06;89262.72;;;18.90;38.60
82927;BME280;72788;40.218;44.486;2023-10-13T09:32:59;89255.16;;;18.88;38.27
82927;BME280;72788;40.218;44.486;2023-10-13T09:35:27;89247.88;;;18.89;38.84
82927;BME280;72788;40.218;44.486;2023-10-13T09:37:54;89251.59;;;18.92;38.48
82927;BME280;72788;40.218;44.486;2023-10-13T09:40:23;89241.53;;;18.96;38.76
82927;BME280;72788;40.218;44.486;2023-10-13T09:43:02;89238.91;;;19.05;37.80
82927;BME280;72788;40.218;44.486;2023-10-13T09:45:34;89242.84;;;19.13;38.67
82927;BME280;72788;40.218;44.486;2023-10-13T09:48:12;89241.72;;;19.23;37.78
82927;BME280;72788;40.218;44.486;2023-10-13T09:50:52;89237.41;;;19.25;38.34
82927;BME280;72788;40.218;44.486;2023-10-13T09:53:22;89245.03;;;19.27;38.25
82927;BME280;72788;40.218;44.486;2023-10-13T09:59:00;89220.25;;;19.35;37.53
82927;BME280;72788;40.218;44.486;2023-10-13T10:01:38;89224.47;;;19.24;37.54
82927;BME280;72788;40.218;44.486;2023-10-13T10:04:16;89220.03;;;19.30;37.14
82927;BME280;72788;40.218;44.486;2023-10-13T10:06:56;89222.03;;;19.38;37.68
82927;BME280;72788;40.218;44.486;2023-10-13T10:09:30;89216.03;;;19.47;37.01
82927;BME280;72788;40.218;44.486;2023-10-13T10:17:43;89208.41;;;19.67;36.84
82927;BME280;72788;40.218;44.486;2023-10-13T10:20:09;89201.28;;;19.73;37.75
82927;BME280;72788;40.218;44.486;2023-10-13T10:22:56;89201.13;;;19.77;36.44
82927;BME280;72788;40.218;44.486;2023-10-13T10:25:34;89199.47;;;19.70;36.87
82927;BME280;72788;40.218;44.486;2023-10-13T10:28:07;89194.25;;;19.67;37.01
82927;BME280;72788;40.218;44.486;2023-10-13T10:30:35;89194.25;;;19.67;37.61
82927;BME280;72788;40.218;44.486;2023-10-13T10:33:01;89191.00;;;19.72;37.73
82927;BME280;72788;40.218;44.486;2023-10-13T10:36:00;89189.09;;;19.81;37.27
82927;BME280;72788;40.218;44.486;2023-10-13T10:38:26;89184.97;;;19.90;37.71
82927;BME280;72788;40.218;44.486;2023-10-13T10:40:57;89184.97;;;19.90;36.92
82927;BME280;72788;40.218;44.486;2023-10-13T10:43:36;89178.09;;;19.89;36.14
82927;BME280;72788;40.218;44.486;2023-10-13T10:46:28;89181.53;;;19.89;36.31
82927;BME280;72788;40.218;44.486;2023-10-13T10:49:06;89179.59;;;19.90;37.00
82927;BME280;72788;40.218;44.486;2023-10-13T10:51:36;89171.84;;;19.92;37.01
82927;BME280;72788;40.218;44.486;2023-10-13T10:54:18;89180.22;;;19.94;36.43
82927;BME280;72788;40.218;44.486;2023-10-13T10:56:46;89169.16;;;19.92;36.77
82927;BME280;72788;40.218;44.486;2023-10-13T10:59:18;89174.22;;;19.90;37.09
82927;BME280;72788;40.218;44.486;2023-10-13T11:01:45;89170.22;;;19.94;37.20
82927;BME280;72788;40.218;44.486;2023-10-13T11:04:16;89174.84;;;19.94;36.67
82927;BME280;72788;40.218;44.486;2023-10-13T11:06:55;89171.41;;;19.93;36.29
82927;BME280;72788;40.218;44.486;2023-10-13T11:09:32;89167.69;;;19.91;36.19
82927;BME280;72788;40.218;44.486;2023-10-13T11:15:06;89168.72;;;19.93;36.19
82927;BME280;72788;40.218;44.486;2023-10-13T11:17:59;89168.91;;;19.99;36.97
82927;BME280;72788;40.218;44.486;2023-10-13T11:20:24;89158.78;;;20.03;37.00
82927;BME280;72788;40.218;44.486;2023-10-13T11:22:59;89155.97;;;20.06;36.41
82927;BME280;72788;40.218;44.486;2023-10-13T11:25:34;89157.75;;;20.09;37.01
82927;BME280;72788;40.218;44.486;2023-10-13T11:28:13;89158.53;;;20.19;36.38
82927;BME280;72788;40.218;44.486;2023-10-13T11:30:47;89151.81;;;20.23;36.17
82927;BME280;72788;40.218;44.486;2023-10-13T11:33:17;89142.59;;;20.24;36.60
82927;BME280;72788;40.218;44.486;2023-10-13T11:35:58;89144.53;;;20.24;36.38
82927;BME280;72788;40.218;44.486;2023-10-13T11:38:33;89138.41;;;20.23;36.81
82927;BME280;72788;40.218;44.486;2023-10-13T11:41:13;89137.09;;;20.28;36.29
82927;BME280;72788;40.218;44.486;2023-10-13T11:43:48;89141.69;;;20.27;36.85
82927;BME280;72788;40.218;44.486;2023-10-13T11:46:21;89140.84;;;20.31;36.62
82927;BME280;72788;40.218;44.486;2023-10-13T11:49:10;89141.31;;;20.38;36.00
82927;BME280;72788;40.218;44.486;2023-10-13T11:51:42;89139.81;;;20.37;35.71
82927;BME280;72788;40.218;44.486;2023-10-13T11:54:12;89141.75;;;20.37;36.58
82927;BME280;72788;40.218;44.486;2023-10-13T11:56:37;89140.09;;;20.39;36.66
82927;BME280;72788;40.218;44.486;2023-10-13T11:59:04;89134.31;;;20.41;36.54
82927;BME280;72788;40.218;44.486;2023-10-13T12:01:32;89138.03;;;20.43;36.53
82927;BME280;72788;40.218;44.486;2023-10-13T12:04:30;89134.75;;;20.48;36.59
82927;BME280;72788;40.218;44.486;2023-10-13T12:06:59;89133.84;;;20.51;36.43
82927;BME280;72788;40.218;44.486;2023-10-13T12:09:40;89126.28;;;20.50;36.41
82927;BME280;72788;40.218;44.486;2023-10-13T12:12:26;89130.00;;;20.52;36.15
82927;BME280;72788;40.218;44.486;2023-10-13T12:14:55;89131.19;;;20.60;36.09
82927;BME280;72788;40.218;44.486;2023-10-13T12:17:26;89123.41;;;20.62;35.84
82927;BME280;72788;40.218;44.486;2023-10-13T12:20:01;89125.38;;;20.62;35.71
82927;BME280;72788;40.218;44.486;2023-10-13T12:22:30;89125.50;;;20.58;36.29
82927;BME280;72788;40.218;44.486;2023-10-13T12:25:04;89126.41;;;20.55;36.42
82927;BME280;72788;40.218;44.486;2023-10-13T12:27:43;89125.50;;;20.58;36.38
82927;BME280;72788;40.218;44.486;2023-10-13T12:30:13;89129.84;;;20.65;36.15
82927;BME280;72788;40.218;44.486;2023-10-13T12:32:42;89127.91;;;20.65;36.33
82927;BME280;72788;40.218;44.486;2023-10-13T12:35:19;89123.72;;;20.64;36.38
82927;BME280;72788;40.218;44.486;2023-10-13T12:38:10;89121.06;;;20.64;36.27
82927;BME280;72788;40.218;44.486;2023-10-13T12:40:55;89125.38;;;20.62;36.29
82927;BME280;72788;40.218;44.486;2023-10-13T12:43:39;89116.59;;;20.61;36.30
82927;BME280;72788;40.218;44.486;2023-10-13T12:46:23;89122.09;;;20.67;36.48
82927;BME280;72788;40.218;44.486;2023-10-13T12:49:07;89121.22;;;20.70;36.28
82927;BME280;72788;40.218;44.486;2023-10-13T12:51:53;89114.94;;;20.73;36.22
82927;BME280;72788;40.218;44.486;2023-10-13T12:54:18;89120.28;;;20.82;36.09
82927;BME280;72788;40.218;44.486;2023-10-13T12:56:49;89119.84;;;20.93;36.19
82927;BME280;72788;40.218;44.486;2023-10-13T12:59:22;89119.66;;;21.05;35.99
82927;BME280;72788;40.218;44.486;2023-10-13T13:01:52;89111.03;;;21.19;36.00
82927;BME280;72788;40.218;44.486;2023-10-13T13:04:18;89119.06;;;21.38;35.51
82927;BME280;72788;40.218;44.486;2023-10-13T13:06:49;89113.00;;;21.61;34.73
82927;BME280;72788;40.218;44.486;2023-10-13T13:09:16;89109.22;;;21.77;35.29
82927;BME280;72788;40.218;44.486;2023-10-13T13:11:54;89112.91;;;21.88;34.80
82927;BME280;72788;40.218;44.486;2023-10-13T13:14:24;89113.47;;;22.01;34.83
82927;BME280;72788;40.218;44.486;2023-10-13T13:16:56;89107.31;;;22.10;34.55
82927;BME280;72788;40.218;44.486;2023-10-13T13:19:35;89113.53;;;22.16;34.20
82927;BME280;72788;40.218;44.486;2023-10-13T13:22:08;89108.56;;;22.24;34.62
82927;BME280;72788;40.218;44.486;2023-10-13T13:24:46;89107.59;;;22.36;33.58
82927;BME280;72788;40.218;44.486;2023-10-13T13:27:14;89110.69;;;22.43;34.12
82927;BME280;72788;40.218;44.486;2023-10-13T13:29:46;89106.75;;;22.53;33.17
82927;BME280;72788;40.218;44.486;2023-10-13T13:32:12;89108.63;;;22.62;34.32
82927;BME280;72788;40.218;44.486;2023-10-13T13:34:50;89115.16;;;22.70;33.70
82927;BME280;72788;40.218;44.486;2023-10-13T13:37:33;89105.63;;;22.69;33.86
82927;BME280;72788;40.218;44.486;2023-10-13T13:39:59;89107.88;;;22.61;33.71
82927;BME280;72788;40.218;44.486;2023-10-13T13:42:47;89111.09;;;22.51;33.54
82927;BME280;72788;40.218;44.486;2023-10-13T13:45:18;89112.19;;;22.44;33.28
82927;BME280;72788;40.218;44.486;2023-10-13T13:47:50;89110.41;;;22.41;33.59
82927;BME280;72788;40.218;44.486;2023-10-13T13:50:22;89112.56;;;22.28;33.61
82927;BME280;72788;40.218;44.486;2023-10-13T13:52:58;89111.16;;;22.18;33.74